Hofu Airport
RJOF : now visible

Airfield :











YOU CAN JOIN US ON...

 
LOGIN :

Register | Disclaimer

   EN    FR    IT 

 









Legend :    VFR   Marginal VFR   IFR   Intensive IFR   Very Intensive IFR
Visi :
Ceiling :
>= 8 km
>= 3000ft
5 to 8 km
1000 to 3000 ft
1500m to 5 km
500 to 1000 ft
800 to 1500m
200 to 500 ft
< 800m
< 200 ft
Symbols :   Thunderstorms  Fog  Heavy snow  Heavy precipitations  Wind > 20 kt






- Airport Elevation : 7 ft


RJOF - Hofu

CURRENT METAR :
  • 191943Z 01003KT 9999 FEW010 BKN050 25/23 Q1011 RETS RMK 1ST010 7SC050 A2986 WIND EST

EXPIRED METARs :
  • 191915Z 01005KT 320V080 8000 -TSRA FEW010 BKN035CB BKN040 25/23 Q1011 RMK 1ST010 5CB035 7CU040 A2986 WIND EST VIS NW-NE 10KM FBL TS 5KM E MOV E
  • 191853Z 02011KT 7000 +TSRA FEW015 BKN035CB BKN040 26/22 Q1011 RMK 1CU015 6CB035 7SC040 A2987 WIND EST VIS W-NW 4500M MOD TS 5KM W APCHG STN CB OHD MOV E
  • 191840Z 34008KT 300V030 9999 -TSRA FEW015 SCT035CB BKN040 26/22 Q1011 RMK 1CU015 4CB035 7SC040 A2987 WIND EST FBL TS 10KM W CB W-N MOV E
  • 191825Z COR 28010KT 9999 TS FEW015 SCT035CB BKN045 27/22 Q1011 RMK 1CU015 3CB035 7SC045 A2987 WIND EST FBL TS 10KM N-NE MOV E 20KM W APCHG STN CB 10KM NW-NE MOV E
  • 191741Z 03003KT 360V060 9999 TS FEW020 FEW040CB BKN050 26/24 Q1010 RMK 1CU020 2CB040 7SC050 A2984 WIND EST FBL TS 30KM NW-N MOV E

TAF N/A
RJJJ FIR / Asia



MET'MAP, your aeronautical weather chart ! - Copyright ORBIFLY December 2007 - Disclaimer

ORBIFLY MET'MAP TEAM :

Programming & Development : Alexandra Zaïnal
Original concept : Baudouin d'Aumeries
Technical & hardware support : Manuel Goepfert
Assistance : Marc-Olivier Méhu




SOURCES & CREDITS :

   NOAA       Earth
Advisory